Time;durP1;ratioP1;P1;durP2;ratioP2;P2;SDS_P1;SDS_P2;PMS_P1;PMS_P2;Temp;Humidity;BMP_temperature;BMP_pressure;BME280_temperature;BME280_humidity;BME280_pressure;Samples;Min_cycle;Max_cycle;Signal;HPM_P1;HPM_P2
2022/02/25 00:01:51;;;;;;;1.90;0.60;;;3.50;99.90;;;;;;5012569;28;20217;-75
2022/02/25 00:04:18;;;;;;;2.57;0.53;;;3.60;99.90;;;;;;5012465;28;20202;-75
2022/02/25 00:06:46;;;;;;;4.53;0.80;;;3.60;99.90;;;;;;5011719;28;20206;-75
2022/02/25 00:09:13;;;;;;;2.10;0.57;;;3.60;99.90;;;;;;5012061;28;20593;-76
2022/02/25 00:11:40;;;;;;;4.63;1.07;;;3.60;99.90;;;;;;5012023;28;20215;-75
2022/02/25 00:14:07;;;;;;;2.30;0.97;;;3.70;99.90;;;;;;5012186;28;20245;-75
2022/02/25 00:16:34;;;;;;;4.17;0.70;;;3.70;99.90;;;;;;5012149;28;20615;-74
2022/02/25 00:19:00;;;;;;;0.80;0.50;;;3.70;99.90;;;;;;5012081;28;20216;-75
2022/02/25 00:21:27;;;;;;;2.27;0.60;;;3.70;99.90;;;;;;5011115;28;20212;-75
2022/02/25 00:23:55;;;;;;;1.50;0.70;;;3.70;99.90;;;;;;5011847;28;20216;-75
2022/02/25 00:26:22;;;;;;;2.77;0.93;;;3.70;99.90;;;;;;5012152;28;20205;-75
2022/02/25 00:28:49;;;;;;;2.13;0.90;;;3.60;99.90;;;;;;5011778;28;20212;-75
2022/02/25 00:31:16;;;;;;;2.13;0.47;;;3.60;99.90;;;;;;5011827;28;20205;-75
2022/02/25 00:33:43;;;;;;;1.90;0.90;;;3.60;99.90;;;;;;5011688;28;20708;-75
2022/02/25 00:36:10;;;;;;;2.17;0.70;;;3.60;99.90;;;;;;5011502;28;20212;-76
2022/02/25 00:38:36;;;;;;;6.83;0.97;;;3.60;99.90;;;;;;5011175;28;20201;-75
2022/02/25 00:41:05;;;;;;;5.33;0.80;;;3.60;99.90;;;;;;5011479;28;20233;-75
2022/02/25 00:43:31;;;;;;;6.47;0.70;;;3.60;99.90;;;;;;5011135;28;20213;-75
2022/02/25 00:45:58;;;;;;;4.27;1.07;;;3.60;99.90;;;;;;5011984;28;20201;-75
2022/02/25 00:48:25;;;;;;;5.37;0.70;;;3.60;99.90;;;;;;5011909;28;20592;-76
2022/02/25 00:50:52;;;;;;;4.20;0.63;;;3.50;99.90;;;;;;5011159;28;20257;-75
2022/02/25 00:53:19;;;;;;;5.57;0.77;;;3.50;99.90;;;;;;5014696;28;20212;-75
2022/02/25 00:55:46;;;;;;;1.33;0.60;;;3.50;99.90;;;;;;5015561;28;20209;-76
2022/02/25 00:58:14;;;;;;;1.27;0.70;;;3.50;99.90;;;;;;5015816;28;20201;-74
2022/02/25 01:00:41;;;;;;;2.07;0.50;;;3.60;99.90;;;;;;5016708;28;20229;-75
2022/02/25 01:03:08;;;;;;;4.67;0.73;;;3.50;99.90;;;;;;5017029;28;20214;-76
2022/02/25 01:05:35;;;;;;;6.23;1.10;;;3.60;99.90;;;;;;5017081;28;20224;-75
2022/02/25 01:08:05;;;;;;;9.17;1.07;;;3.50;99.90;;;;;;5017027;28;20683;-75
2022/02/25 01:10:33;;;;;;;5.70;0.50;;;3.50;99.90;;;;;;5016254;28;20719;-75
2022/02/25 01:13:00;;;;;;;3.83;0.70;;;3.50;99.90;;;;;;5016680;28;20206;-75
2022/02/25 01:15:28;;;;;;;1.33;0.67;;;3.40;99.90;;;;;;5015823;28;20592;-75
2022/02/25 01:17:55;;;;;;;2.73;0.70;;;3.40;99.90;;;;;;5017043;28;20217;-75
2022/02/25 01:20:22;;;;;;;6.67;0.80;;;3.30;99.90;;;;;;5016308;28;20585;-75
2022/02/25 01:22:48;;;;;;;1.40;0.30;;;3.40;99.90;;;;;;5016473;28;20573;-75
2022/02/25 01:25:16;;;;;;;6.43;1.13;;;3.40;99.90;;;;;;5015815;28;20212;-76
2022/02/25 01:27:44;;;;;;;1.77;0.60;;;3.40;99.90;;;;;;5016635;28;20212;-75
2022/02/25 01:30:12;;;;;;;7.83;0.80;;;3.40;99.90;;;;;;5016504;28;20583;-75
2022/02/25 01:32:40;;;;;;;3.30;0.80;;;3.30;99.90;;;;;;5015625;28;20201;-75
2022/02/25 01:35:08;;;;;;;5.30;1.53;;;3.30;99.90;;;;;;5016147;28;20240;-75
2022/02/25 01:37:35;;;;;;;3.67;0.70;;;3.30;99.90;;;;;;5016266;28;20202;-75
2022/02/25 01:40:02;;;;;;;3.33;0.53;;;3.20;99.90;;;;;;5015957;28;20237;-74
2022/02/25 01:42:29;;;;;;;3.57;0.60;;;3.20;99.90;;;;;;5015846;28;20206;-75
2022/02/25 01:44:55;;;;;;;3.83;0.87;;;3.30;99.90;;;;;;5016185;28;20231;-75
2022/02/25 01:47:22;;;;;;;1.63;0.53;;;3.30;99.90;;;;;;5015193;28;20601;-75
2022/02/25 01:49:50;;;;;;;4.20;0.50;;;3.30;99.90;;;;;;5015772;28;20229;-76
2022/02/25 01:52:20;;;;;;;5.43;0.70;;;3.30;99.90;;;;;;5016111;28;20296;-75
2022/02/25 01:54:48;;;;;;;5.40;0.70;;;3.30;99.90;;;;;;5015595;28;20234;-75
2022/02/25 01:57:17;;;;;;;1.50;0.50;;;3.30;99.90;;;;;;5014553;28;20212;-75
2022/02/25 01:59:44;;;;;;;3.23;0.60;;;3.20;99.90;;;;;;5015297;28;20432;-75
2022/02/25 02:02:12;;;;;;;2.43;1.00;;;3.20;99.90;;;;;;5015852;28;20209;-75
2022/02/25 02:04:39;;;;;;;3.30;0.73;;;3.30;99.90;;;;;;5015458;28;20205;-75
2022/02/25 02:07:08;;;;;;;3.57;0.90;;;3.30;99.90;;;;;;5014870;28;20284;-75
2022/02/25 02:09:35;;;;;;;2.40;0.60;;;3.30;99.90;;;;;;5014369;28;20704;-75
2022/02/25 02:12:02;;;;;;;0.87;0.40;;;3.40;99.90;;;;;;5014779;28;20210;-75
2022/02/25 02:14:29;;;;;;;3.00;1.03;;;3.30;99.90;;;;;;5014129;28;20229;-75
2022/02/25 02:16:57;;;;;;;6.17;0.93;;;3.30;99.90;;;;;;5014546;28;20292;-75
2022/02/25 02:19:25;;;;;;;4.03;1.00;;;3.30;99.90;;;;;;5014765;28;20252;-75
2022/02/25 02:21:54;;;;;;;3.23;0.80;;;3.30;99.90;;;;;;5014827;28;20216;-74
2022/02/25 02:24:23;;;;;;;4.40;0.70;;;3.30;99.90;;;;;;5015549;28;20205;-75
2022/02/25 02:26:52;;;;;;;1.50;0.50;;;3.30;99.90;;;;;;5015320;28;20209;-75
2022/02/25 02:29:19;;;;;;;2.47;0.77;;;3.30;99.90;;;;;;5014584;28;20221;-75
2022/02/25 02:31:46;;;;;;;4.57;0.80;;;3.30;99.90;;;;;;5014350;28;20194;-75
2022/02/25 02:34:14;;;;;;;4.60;1.10;;;3.30;99.90;;;;;;5014276;28;20226;-75
2022/02/25 02:36:41;;;;;;;2.47;0.40;;;3.30;99.90;;;;;;5015012;28;20197;-75
2022/02/25 02:39:10;;;;;;;5.40;0.60;;;3.30;99.90;;;;;;5015087;28;20568;-75
2022/02/25 02:41:39;;;;;;;4.37;1.13;;;3.30;99.90;;;;;;5014988;28;20600;-75
2022/02/25 02:44:06;;;;;;;4.53;0.93;;;3.30;99.90;;;;;;5014908;28;20298;-75
2022/02/25 02:46:33;;;;;;;4.03;0.80;;;3.40;99.90;;;;;;5015058;28;20649;-74
2022/02/25 02:49:01;;;;;;;4.63;0.70;;;3.30;99.90;;;;;;5014894;28;20224;-75
2022/02/25 02:51:29;;;;;;;1.93;0.67;;;3.30;99.90;;;;;;5014887;28;20206;-75
2022/02/25 02:53:56;;;;;;;3.70;0.70;;;3.30;99.90;;;;;;5014351;28;20209;-75
2022/02/25 02:56:23;;;;;;;5.63;0.97;;;3.30;99.90;;;;;;5014380;28;20254;-75
2022/02/25 02:58:55;;;;;;;2.63;1.93;;;3.30;99.90;;;;;;5014280;28;20220;-74
2022/02/25 03:01:23;;;;;;;2.20;0.80;;;3.30;99.90;;;;;;5013963;28;20205;-75
2022/02/25 03:03:50;;;;;;;4.20;0.53;;;3.20;99.90;;;;;;5014482;28;20198;-75
2022/02/25 03:06:16;;;;;;;1.47;0.37;;;3.20;99.90;;;;;;5014736;28;20209;-74
2022/02/25 03:08:43;;;;;;;0.93;0.50;;;3.20;99.90;;;;;;5014603;28;20206;-75
2022/02/25 03:11:10;;;;;;;8.80;0.70;;;3.20;99.90;;;;;;5014234;28;20226;-76
2022/02/25 03:13:37;;;;;;;2.33;0.80;;;3.30;99.90;;;;;;5014114;28;20205;-75
2022/02/25 03:16:06;;;;;;;6.33;0.43;;;3.30;99.90;;;;;;5013980;28;20240;-75
2022/02/25 03:18:33;;;;;;;6.17;0.77;;;3.30;99.90;;;;;;5013223;28;20202;-76
2022/02/25 03:21:00;;;;;;;6.77;1.00;;;3.30;99.90;;;;;;5014000;28;20237;-75
2022/02/25 03:23:26;;;;;;;2.60;0.77;;;3.30;99.90;;;;;;5014038;28;20209;-75
2022/02/25 03:25:53;;;;;;;2.37;0.60;;;3.30;99.90;;;;;;5014177;28;20220;-75
2022/02/25 03:28:20;;;;;;;6.50;0.90;;;3.30;99.90;;;;;;5013864;28;20687;-75
2022/02/25 03:30:47;;;;;;;8.87;0.80;;;3.30;99.90;;;;;;5014162;28;20236;-75
2022/02/25 03:33:15;;;;;;;5.80;0.90;;;3.30;99.90;;;;;;5014382;28;20212;-75
2022/02/25 03:35:42;;;;;;;2.93;0.80;;;3.30;99.90;;;;;;5013545;28;20234;-75
2022/02/25 03:38:09;;;;;;;1.53;0.60;;;3.30;99.90;;;;;;5010047;28;20206;-75
2022/02/25 03:40:36;;;;;;;3.40;0.80;;;3.30;99.90;;;;;;5013642;28;20221;-75
2022/02/25 03:43:03;;;;;;;2.47;0.50;;;3.30;99.90;;;;;;5013774;28;20212;-74
2022/02/25 03:45:30;;;;;;;2.13;0.40;;;3.30;99.90;;;;;;5013697;28;20206;-75
2022/02/25 03:47:57;;;;;;;4.23;1.37;;;3.30;99.90;;;;;;5013624;28;20212;-75
2022/02/25 03:50:25;;;;;;;2.97;0.70;;;3.30;99.90;;;;;;5013566;28;20232;-75
2022/02/25 03:52:51;;;;;;;3.67;0.80;;;3.30;99.90;;;;;;5013176;28;20296;-75
2022/02/25 03:55:18;;;;;;;4.00;0.80;;;3.30;99.90;;;;;;5012799;28;20229;-75
2022/02/25 03:57:45;;;;;;;3.57;0.50;;;3.30;99.90;;;;;;5012873;28;20676;-75
2022/02/25 04:00:13;;;;;;;4.27;0.70;;;3.30;99.90;;;;;;5013312;28;20352;-74
2022/02/25 04:02:40;;;;;;;3.23;0.80;;;3.20;99.90;;;;;;5013488;28;20292;-75
2022/02/25 04:05:10;;;;;;;25.20;1.27;;;3.30;99.90;;;;;;5013081;28;20209;-75
2022/02/25 04:07:39;;;;;;;3.47;0.67;;;3.30;99.90;;;;;;5013184;28;20297;-74
2022/02/25 04:10:07;;;;;;;3.73;0.80;;;3.20;99.90;;;;;;5012472;28;20228;-75
2022/02/25 04:12:34;;;;;;;6.03;0.50;;;3.20;99.90;;;;;;5013282;28;20569;-74
2022/02/25 04:15:01;;;;;;;2.53;0.70;;;3.20;99.90;;;;;;5013492;28;20225;-75
2022/02/25 04:17:27;;;;;;;3.17;0.80;;;3.20;99.90;;;;;;5013514;28;20213;-75
2022/02/25 04:19:54;;;;;;;5.23;0.73;;;3.20;99.90;;;;;;5013242;28;20232;-75
2022/02/25 04:22:21;;;;;;;10.50;0.93;;;3.30;99.90;;;;;;5012998;28;20213;-75
2022/02/25 04:24:49;;;;;;;5.70;0.77;;;3.30;99.90;;;;;;5012820;28;20197;-77
2022/02/25 04:27:16;;;;;;;9.47;1.00;;;3.30;99.90;;;;;;5012738;28;20206;-75
2022/02/25 04:29:44;;;;;;;2.60;0.50;;;3.30;99.90;;;;;;5012088;28;20249;-76
2022/02/25 04:32:11;;;;;;;5.07;0.87;;;3.30;99.90;;;;;;5012922;28;20237;-75
2022/02/25 04:34:37;;;;;;;8.53;0.90;;;3.40;99.90;;;;;;5012363;28;20680;-74
2022/02/25 04:37:05;;;;;;;3.93;0.60;;;3.40;99.90;;;;;;5013331;28;20201;-75
2022/02/25 04:39:32;;;;;;;4.13;0.40;;;3.30;99.90;;;;;;5012932;28;20592;-75
2022/02/25 04:42:00;;;;;;;3.37;0.60;;;3.30;99.90;;;;;;5012701;28;20206;-75
2022/02/25 04:44:27;;;;;;;6.23;0.80;;;3.40;99.90;;;;;;5012739;28;20205;-76
2022/02/25 04:46:53;;;;;;;4.40;0.80;;;3.30;99.90;;;;;;5012482;28;20696;-76
2022/02/25 04:49:20;;;;;;;3.30;0.73;;;3.40;99.90;;;;;;5012823;28;20248;-77
2022/02/25 04:51:47;;;;;;;4.40;0.80;;;3.40;99.90;;;;;;5013065;28;20276;-76
2022/02/25 04:54:14;;;;;;;3.83;0.50;;;3.50;99.90;;;;;;5012501;28;20214;-76
2022/02/25 04:56:41;;;;;;;3.20;0.67;;;3.50;99.90;;;;;;5012597;28;20237;-76
2022/02/25 04:59:09;;;;;;;6.77;0.80;;;3.60;99.90;;;;;;5011880;28;20244;-75
2022/02/25 05:01:36;;;;;;;4.10;0.60;;;3.60;99.90;;;;;;5011338;28;20210;-74
2022/02/25 05:04:03;;;;;;;1.57;0.40;;;3.70;99.90;;;;;;5012853;28;20209;-75
2022/02/25 05:06:30;;;;;;;2.97;0.67;;;3.70;99.90;;;;;;5013109;28;20210;-75
2022/02/25 05:08:57;;;;;;;6.00;0.87;;;3.80;99.90;;;;;;5012653;28;20548;-76
2022/02/25 05:11:23;;;;;;;3.77;0.77;;;3.70;99.90;;;;;;5012861;28;20206;-75
2022/02/25 05:13:50;;;;;;;10.03;0.93;;;3.70;99.90;;;;;;5013117;28;20219;-75
2022/02/25 05:21:48;;;;;;;2.00;0.87;;;3.80;99.90;;;;;;5012428;28;20248;-76
2022/02/25 05:24:15;;;;;;;1.27;0.50;;;3.90;99.90;;;;;;5012327;28;20260;-76
2022/02/25 05:26:42;;;;;;;1.47;0.70;;;4.00;99.90;;;;;;5012052;28;20212;-76
2022/02/25 05:29:09;;;;;;;3.90;0.83;;;4.00;99.90;;;;;;5011976;28;20202;-76
2022/02/25 05:31:37;;;;;;;3.50;0.50;;;4.00;99.90;;;;;;5012444;28;20612;-76
2022/02/25 05:34:05;;;;;;;4.20;0.50;;;4.00;99.90;;;;;;5011425;28;20293;-77
2022/02/25 05:36:31;;;;;;;4.40;0.70;;;4.00;99.90;;;;;;5011802;28;20702;-76
2022/02/25 05:38:58;;;;;;;1.53;0.63;;;4.00;99.90;;;;;;5014443;28;20643;-76
2022/02/25 05:41:25;;;;;;;1.90;0.43;;;4.10;99.90;;;;;;5016178;28;20205;-76
2022/02/25 05:43:52;;;;;;;5.40;0.63;;;4.10;99.90;;;;;;5016264;28;20572;-76
2022/02/25 05:46:19;;;;;;;3.17;0.30;;;4.00;99.90;;;;;;5016051;28;20221;-76
2022/02/25 05:48:47;;;;;;;5.40;0.70;;;4.00;99.90;;;;;;5016311;28;20227;-76
2022/02/25 05:51:14;;;;;;;3.30;0.83;;;3.90;99.90;;;;;;5015461;28;20233;-76
2022/02/25 05:53:41;;;;;;;6.10;0.60;;;4.00;99.90;;;;;;5015675;28;20210;-76
2022/02/25 05:56:08;;;;;;;1.77;0.30;;;4.00;99.90;;;;;;5014982;28;20715;-76
2022/02/25 05:58:34;;;;;;;3.90;0.83;;;4.00;99.90;;;;;;5015799;28;20213;-75
2022/02/25 06:01:01;;;;;;;4.00;0.53;;;4.10;99.90;;;;;;5015364;28;20568;-75
2022/02/25 06:03:28;;;;;;;3.50;0.70;;;4.10;99.90;;;;;;5015673;28;20216;-76
2022/02/25 06:05:56;;;;;;;5.73;0.73;;;4.10;99.90;;;;;;5015488;28;20216;-76
2022/02/25 06:08:23;;;;;;;3.40;0.73;;;4.20;99.90;;;;;;5014589;28;20194;-75
2022/02/25 06:10:50;;;;;;;2.00;0.30;;;4.20;99.90;;;;;;5014781;28;20225;-76
2022/02/25 06:13:16;;;;;;;5.77;0.67;;;4.20;99.90;;;;;;5015198;28;20557;-76
2022/02/25 06:15:45;;;;;;;3.43;0.73;;;4.20;99.90;;;;;;5014630;28;20225;-75
2022/02/25 06:18:13;;;;;;;9.23;0.90;;;4.20;99.90;;;;;;5015293;28;20216;-76
2022/02/25 06:20:40;;;;;;;6.93;0.97;;;4.30;99.90;;;;;;5015364;28;20225;-76
2022/02/25 06:23:09;;;;;;;1.00;0.30;;;4.30;99.90;;;;;;5014912;28;20210;-75
2022/02/25 06:25:36;;;;;;;3.50;0.60;;;4.20;99.90;;;;;;5015246;28;20205;-76
2022/02/25 06:28:03;;;;;;;4.33;0.93;;;4.20;99.90;;;;;;5014986;28;20687;-76
2022/02/25 06:30:30;;;;;;;0.97;0.43;;;4.20;99.90;;;;;;5013655;28;20225;-75
2022/02/25 06:33:00;;;;;;;4.40;1.00;;;4.30;99.90;;;;;;5014441;28;20210;-76
2022/02/25 06:35:29;;;;;;;4.57;0.60;;;4.40;99.90;;;;;;5014874;28;20251;-76
2022/02/25 06:37:56;;;;;;;4.63;0.70;;;4.40;99.90;;;;;;5014787;28;20578;-73
2022/02/25 06:40:25;;;;;;;5.07;0.87;;;4.40;99.90;;;;;;5014924;28;20229;-73
2022/02/25 06:42:52;;;;;;;8.33;0.77;;;4.40;99.90;;;;;;5014673;28;20216;-73
2022/02/25 06:45:19;;;;;;;1.67;0.80;;;4.30;99.90;;;;;;5014746;28;20206;-74
2022/02/25 06:47:46;;;;;;;3.83;0.80;;;4.40;99.90;;;;;;5014400;28;20325;-75
2022/02/25 06:50:15;;;;;;;5.17;0.90;;;4.40;99.90;;;;;;5013397;28;20229;-74
2022/02/25 06:52:42;;;;;;;5.27;0.70;;;4.50;99.90;;;;;;5014665;28;20210;-74
2022/02/25 06:55:09;;;;;;;7.00;0.90;;;4.50;99.90;;;;;;5013758;28;20213;-74
2022/02/25 06:57:37;;;;;;;5.50;0.73;;;4.50;99.90;;;;;;5014697;28;20213;-75
2022/02/25 07:00:05;;;;;;;6.90;1.10;;;4.60;99.90;;;;;;5014925;28;20233;-74
2022/02/25 07:02:32;;;;;;;3.33;0.90;;;4.70;99.90;;;;;;5015160;28;20292;-73
2022/02/25 07:04:59;;;;;;;5.60;0.80;;;4.70;99.90;;;;;;5014832;28;20210;-74
2022/02/25 07:07:25;;;;;;;2.63;0.83;;;4.70;99.90;;;;;;5015211;28;20214;-74
2022/02/25 07:09:52;;;;;;;6.30;1.00;;;4.60;99.90;;;;;;5014615;28;20229;-75
2022/02/25 07:12:19;;;;;;;9.53;0.77;;;4.60;99.90;;;;;;5014874;28;20205;-75
2022/02/25 07:14:47;;;;;;;4.70;0.97;;;4.60;99.90;;;;;;5014765;28;20253;-74
2022/02/25 07:17:14;;;;;;;6.20;0.80;;;4.60;99.90;;;;;;5014282;28;20233;-74
2022/02/25 07:19:41;;;;;;;6.87;0.93;;;4.80;99.90;;;;;;5014778;28;20236;-75
2022/02/25 07:22:07;;;;;;;10.93;0.97;;;4.80;99.90;;;;;;5014492;28;20679;-73
2022/02/25 07:24:34;;;;;;;6.23;1.00;;;4.80;99.90;;;;;;5014767;28;20208;-74
2022/02/25 07:27:01;;;;;;;6.70;0.67;;;4.90;99.90;;;;;;5014608;28;20220;-73
2022/02/25 07:29:28;;;;;;;7.63;1.03;;;4.90;99.90;;;;;;5014348;28;20692;-74
2022/02/25 07:31:56;;;;;;;4.67;0.93;;;5.00;99.90;;;;;;5014319;28;20216;-73
2022/02/25 07:34:23;;;;;;;8.23;0.63;;;5.20;99.90;;;;;;5014408;28;20794;-74
2022/02/25 07:36:50;;;;;;;2.13;0.80;;;5.10;99.90;;;;;;5014499;28;20242;-73
2022/02/25 07:39:16;;;;;;;8.80;0.80;;;5.20;99.90;;;;;;5014128;28;20221;-74
2022/02/25 07:41:43;;;;;;;4.83;0.90;;;5.20;99.90;;;;;;5014213;28;20210;-74
2022/02/25 07:44:10;;;;;;;7.07;0.83;;;5.30;99.90;;;;;;5013923;28;20201;-74
2022/02/25 07:46:37;;;;;;;2.67;0.90;;;5.40;99.90;;;;;;5014027;28;20206;-74
2022/02/25 07:49:05;;;;;;;7.97;0.97;;;5.50;99.90;;;;;;5013892;28;20661;-74
2022/02/25 07:51:32;;;;;;;4.50;0.80;;;5.60;99.90;;;;;;5014107;28;20292;-74
2022/02/25 07:54:03;;;;;;;6.07;1.07;;;5.50;99.90;;;;;;5013895;28;20206;-74
2022/02/25 07:56:30;;;;;;;2.33;0.60;;;5.50;99.90;;;;;;5013822;28;20237;-74
2022/02/25 07:58:57;;;;;;;6.10;0.70;;;5.50;99.90;;;;;;5013991;28;20221;-73
2022/02/25 08:01:24;;;;;;;5.50;1.43;;;5.50;99.90;;;;;;5013568;28;20680;-74
2022/02/25 08:03:51;;;;;;;8.10;1.03;;;5.50;99.90;;;;;;5014005;28;20202;-74
2022/02/25 08:06:19;;;;;;;4.33;1.10;;;5.40;99.90;;;;;;5013926;28;20210;-73
2022/02/25 08:08:46;;;;;;;4.83;0.80;;;5.50;99.90;;;;;;5013633;28;20205;-74
2022/02/25 08:11:13;;;;;;;3.17;0.80;;;5.60;99.90;;;;;;5013711;28;20229;-73
2022/02/25 08:13:39;;;;;;;10.37;1.27;;;5.70;99.90;;;;;;5013804;28;20202;-76
2022/02/25 08:16:07;;;;;;;6.60;1.17;;;5.80;99.90;;;;;;5013546;28;20766;-74
2022/02/25 08:18:34;;;;;;;3.63;0.97;;;5.80;99.90;;;;;;5013446;28;20692;-74
2022/02/25 08:21:01;;;;;;;2.27;0.80;;;6.20;99.90;;;;;;5014024;28;20226;-74
2022/02/25 08:23:29;;;;;;;6.20;1.00;;;7.20;99.90;;;;;;5013415;28;20212;-74
2022/02/25 08:25:56;;;;;;;4.83;0.70;;;8.00;99.90;;;;;;5013501;28;20304;-74
2022/02/25 08:28:23;;;;;;;7.93;0.80;;;8.80;99.90;;;;;;5013217;28;20550;-74
2022/02/25 08:30:50;;;;;;;7.00;1.00;;;9.30;99.90;;;;;;5013724;28;20226;-75
2022/02/25 08:33:17;;;;;;;6.00;1.00;;;9.20;99.90;;;;;;5013396;28;20694;-75
2022/02/25 08:35:44;;;;;;;7.70;0.87;;;8.10;99.90;;;;;;5013345;28;20209;-76
2022/02/25 08:38:11;;;;;;;2.40;0.90;;;7.50;99.90;;;;;;5013251;28;20656;-73
2022/02/25 08:40:40;;;;;;;3.57;0.67;;;7.00;99.90;;;;;;5012935;28;20632;-74
2022/02/25 08:43:07;;;;;;;7.40;1.00;;;6.80;99.90;;;;;;5013299;28;20217;-76
2022/02/25 08:45:34;;;;;;;5.93;1.23;;;6.50;99.90;;;;;;5013661;28;20216;-75
2022/02/25 08:48:01;;;;;;;4.80;1.30;;;6.40;99.90;;;;;;5013525;28;20252;-75
2022/02/25 08:50:28;;;;;;;6.63;1.30;;;6.40;99.90;;;;;;5013438;28;20225;-74
2022/02/25 08:52:55;;;;;;;5.03;0.80;;;6.50;99.90;;;;;;5013061;28;20217;-74
2022/02/25 08:55:24;;;;;;;7.87;1.10;;;6.70;99.90;;;;;;5013099;28;20206;-73
2022/02/25 08:57:53;;;;;;;10.17;1.03;;;6.70;99.90;;;;;;5013345;28;20233;-73
2022/02/25 09:00:22;;;;;;;5.67;1.07;;;6.80;99.90;;;;;;5012881;28;20244;-74
2022/02/25 09:02:50;;;;;;;3.80;0.80;;;6.90;99.90;;;;;;5013228;28;20568;-73
2022/02/25 09:05:18;;;;;;;5.57;0.83;;;7.00;99.90;;;;;;5013050;28;20202;-75
2022/02/25 09:07:45;;;;;;;2.70;1.10;;;7.00;99.90;;;;;;5012890;28;20209;-76
2022/02/25 09:10:13;;;;;;;6.53;0.90;;;7.10;99.90;;;;;;5012863;28;20225;-77
2022/02/25 09:12:41;;;;;;;8.13;1.00;;;7.30;99.90;;;;;;5013421;28;20569;-77
2022/02/25 09:15:11;;;;;;;6.43;0.90;;;7.30;99.90;;;;;;5017120;28;20201;-75
2022/02/25 09:17:39;;;;;;;4.00;0.60;;;7.40;99.90;;;;;;5016710;28;20280;-75
2022/02/25 09:20:09;;;;;;;7.83;1.20;;;7.50;99.90;;;;;;5016625;28;20225;-77
2022/02/25 09:22:36;;;;;;;9.03;0.93;;;7.50;99.90;;;;;;5016736;28;20210;-77
2022/02/25 09:25:04;;;;;;;5.67;1.03;;;7.50;99.90;;;;;;5016820;28;20209;-74
2022/02/25 09:27:32;;;;;;;9.23;1.10;;;7.70;99.90;;;;;;5016848;28;20209;-76
2022/02/25 09:29:59;;;;;;;5.23;0.90;;;7.70;99.90;;;;;;5016709;28;20426;-75
2022/02/25 09:32:27;;;;;;;8.47;1.23;;;7.70;99.90;;;;;;5016633;28;20205;-77
2022/02/25 09:34:54;;;;;;;10.73;1.23;;;7.80;99.90;;;;;;5016142;28;20210;-76
2022/02/25 09:37:22;;;;;;;14.27;1.43;;;7.70;99.90;;;;;;5016063;28;20239;-75
2022/02/25 09:39:49;;;;;;;6.37;1.00;;;7.90;99.90;;;;;;5012811;28;20225;-75
2022/02/25 09:42:19;;;;;;;6.30;1.03;;;8.20;99.90;;;;;;5016056;28;20581;-75
2022/02/25 09:44:46;;;;;;;8.73;0.90;;;8.40;99.90;;;;;;5016197;28;20205;-76
2022/02/25 09:47:15;;;;;;;8.60;1.03;;;8.70;99.90;;;;;;5015968;28;20206;-76
2022/02/25 09:49:43;;;;;;;6.30;0.87;;;8.90;99.90;;;;;;5015816;28;20320;-75
2022/02/25 09:52:13;;;;;;;10.27;1.00;;;8.80;99.90;;;;;;5016337;28;20301;-74
2022/02/25 09:54:40;;;;;;;6.70;1.40;;;8.70;99.90;;;;;;5013078;28;20206;-73
2022/02/25 09:57:07;;;;;;;3.27;1.23;;;8.60;99.90;;;;;;5014290;28;20699;-73
2022/02/25 09:59:34;;;;;;;5.67;0.70;;;8.60;99.90;;;;;;5001072;28;20237;-74
2022/02/25 10:02:03;;;;;;;4.57;0.70;;;8.80;99.90;;;;;;5014000;28;20268;-74
2022/02/25 10:04:30;;;;;;;4.07;0.80;;;8.90;99.90;;;;;;5014788;28;20240;-75
2022/02/25 10:06:58;;;;;;;12.83;1.50;;;8.70;99.90;;;;;;5014569;28;20205;-74
2022/02/25 10:09:32;;;;;;;7.43;0.80;;;8.80;99.90;;;;;;5013835;28;20232;-75
2022/02/25 10:12:00;;;;;;;5.57;1.00;;;9.00;99.90;;;;;;5014517;28;20252;-74
2022/02/25 10:14:30;;;;;;;7.20;0.93;;;9.30;99.90;;;;;;5014805;28;20206;-73
2022/02/25 10:17:13;;;;;;;4.70;0.63;;;9.40;99.90;;;;;;5014113;28;20244;-75
2022/02/25 10:19:42;;;;;;;7.17;1.30;;;9.20;99.90;;;;;;5015583;28;20229;-74
2022/02/25 10:22:23;;;;;;;8.60;1.20;;;9.20;99.90;;;;;;5015963;28;20206;-75
2022/02/25 10:24:52;;;;;;;4.93;0.87;;;9.10;99.90;;;;;;5013981;28;20252;-74
2022/02/25 10:27:24;;;;;;;7.40;1.00;;;9.10;99.90;;;;;;5015647;28;20215;-74
2022/02/25 10:29:57;;;;;;;7.83;0.97;;;9.00;99.90;;;;;;5015715;28;20688;-74
2022/02/25 10:32:28;;;;;;;6.13;0.90;;;8.90;99.90;;;;;;5015446;28;20202;-75
2022/02/25 10:34:55;;;;;;;4.10;0.80;;;8.60;99.90;;;;;;5015753;28;20206;-75
2022/02/25 10:37:24;;;;;;;8.43;0.90;;;8.70;99.90;;;;;;5015185;28;20239;-75
2022/02/25 10:39:50;;;;;;;2.83;1.00;;;8.80;99.90;;;;;;5015765;28;20229;-75
2022/02/25 10:42:22;;;;;;;7.80;1.33;;;8.90;99.90;;;;;;5015493;28;20206;-75
2022/02/25 10:44:53;;;;;;;6.60;0.80;;;9.00;99.90;;;;;;5014988;28;20248;-75
2022/02/25 10:47:22;;;;;;;6.07;1.20;;;9.00;99.90;;;;;;5014749;28;20212;-75
2022/02/25 10:49:51;;;;;;;8.60;0.70;;;9.10;99.90;;;;;;5014953;28;20233;-75
2022/02/25 10:52:28;;;;;;;9.10;1.10;;;9.10;99.90;;;;;;5015431;28;20210;-75
2022/02/25 10:54:56;;;;;;;5.87;1.07;;;9.20;99.90;;;;;;5015185;28;20217;-74
2022/02/25 10:57:25;;;;;;;5.13;1.07;;;9.20;99.90;;;;;;5014751;28;20704;-75
2022/02/25 10:59:52;;;;;;;4.50;0.83;;;9.10;99.90;;;;;;5014927;28;20229;-75
2022/02/25 11:02:31;;;;;;;4.53;1.13;;;9.00;99.90;;;;;;5015135;28;20205;-75
2022/02/25 11:05:10;;;;;;;6.27;0.83;;;9.20;99.90;;;;;;5014759;28;20201;-75
2022/02/25 11:07:41;;;;;;;5.13;1.07;;;9.20;99.90;;;;;;5014660;28;20259;-75
2022/02/25 11:10:09;;;;;;;7.30;1.10;;;9.30;99.90;;;;;;5014371;28;20236;-75
2022/02/25 11:12:37;;;;;;;5.70;1.10;;;9.60;99.90;;;;;;5014315;28;20297;-75
2022/02/25 11:15:06;;;;;;;4.97;0.80;;;9.70;99.90;;;;;;5014711;28;20275;-75
2022/02/25 11:17:35;;;;;;;3.87;0.80;;;9.90;99.90;;;;;;5014607;28;20244;-75
2022/02/25 11:20:05;;;;;;;4.83;0.67;;;10.20;99.90;;;;;;5014012;28;20239;-75
2022/02/25 11:22:34;;;;;;;5.40;0.70;;;10.20;99.90;;;;;;5014254;28;20206;-75
2022/02/25 11:25:02;;;;;;;5.03;0.90;;;10.10;99.90;;;;;;5014420;28;20312;-75
2022/02/25 11:27:29;;;;;;;3.43;0.83;;;10.10;99.90;;;;;;5014369;28;20241;-75
2022/02/25 11:30:02;;;;;;;5.00;1.03;;;10.10;99.90;;;;;;5014279;28;20226;-75
2022/02/25 11:32:35;;;;;;;7.53;1.33;;;9.80;99.90;;;;;;5014161;28;20688;-75
2022/02/25 11:35:13;;;;;;;2.70;0.50;;;9.70;99.90;;;;;;5014347;28;20206;-75
2022/02/25 11:37:44;;;;;;;4.73;1.03;;;9.60;99.90;;;;;;5013969;28;20233;-75
2022/02/25 11:40:13;;;;;;;3.47;0.67;;;9.60;99.90;;;;;;5014203;28;20680;-75
2022/02/25 11:42:40;;;;;;;6.27;0.67;;;9.60;99.90;;;;;;5014222;28;20220;-75
2022/02/25 11:45:22;;;;;;;3.27;0.70;;;9.60;99.90;;;;;;5014085;28;20201;-75
2022/02/25 11:47:56;;;;;;;6.77;0.83;;;9.60;99.90;;;;;;5013915;28;20205;-75
2022/02/25 11:50:35;;;;;;;11.07;0.90;;;9.30;99.90;;;;;;5013611;28;20226;-75
2022/02/25 11:53:17;;;;;;;7.37;0.80;;;9.20;99.90;;;;;;5014098;28;20669;-75
2022/02/25 11:55:45;;;;;;;3.60;0.90;;;8.80;99.90;;;;;;5013832;28;20201;-75
2022/02/25 11:58:41;;;;;;;4.67;1.10;;;8.50;99.90;;;;;;5013777;28;20235;-75
2022/02/25 12:01:09;;;;;;;4.00;1.03;;;8.10;99.90;;;;;;5014031;28;20221;-75
2022/02/25 12:03:36;;;;;;;2.70;0.77;;;7.90;99.90;;;;;;5013800;28;20201;-74
2022/02/25 12:06:04;;;;;;;6.30;0.57;;;7.90;99.90;;;;;;5013577;28;20565;-75
2022/02/25 12:08:33;;;;;;;1.40;0.50;;;7.80;99.90;;;;;;5013814;28;20210;-75
2022/02/25 12:11:33;;;;;;;7.33;0.67;;;7.50;99.90;;;;;;5013419;28;20232;-77
2022/02/25 12:14:02;;;;;;;2.53;0.83;;;7.40;99.90;;;;;;5013871;28;20296;-75
2022/02/25 12:16:34;;;;;;;5.10;0.60;;;7.30;99.90;;;;;;5013427;28;20210;-75
2022/02/25 12:19:09;;;;;;;4.63;0.80;;;7.40;99.90;;;;;;5013370;28;20244;-75
2022/02/25 12:21:41;;;;;;;6.90;0.80;;;7.60;99.90;;;;;;5013329;28;20216;-75
2022/02/25 12:24:14;;;;;;;10.67;1.03;;;7.70;99.90;;;;;;5013434;28;20198;-76
2022/02/25 12:26:41;;;;;;;2.60;0.60;;;7.80;99.90;;;;;;5013266;28;20228;-75
2022/02/25 12:29:18;;;;;;;2.27;0.50;;;8.00;99.90;;;;;;5013353;28;20218;-75
2022/02/25 12:31:46;;;;;;;8.07;0.80;;;8.10;99.90;;;;;;5013512;28;20212;-75
2022/02/25 12:34:25;;;;;;;2.87;0.67;;;8.20;99.90;;;;;;5013334;28;20205;-75
2022/02/25 12:36:53;;;;;;;3.77;1.10;;;8.10;99.90;;;;;;5013397;28;20210;-75
2022/02/25 12:39:31;;;;;;;1.87;0.50;;;7.90;99.90;;;;;;5013068;28;20229;-75
2022/02/25 12:42:10;;;;;;;6.90;0.93;;;7.70;99.90;;;;;;5013061;28;20205;-75
2022/02/25 12:44:43;;;;;;;4.83;0.60;;;7.70;99.90;;;;;;5013014;28;20201;-75
2022/02/25 12:47:11;;;;;;;3.83;0.70;;;7.80;99.90;;;;;;5012872;28;20216;-75
2022/02/25 12:49:40;;;;;;;3.50;0.87;;;7.80;99.90;;;;;;5012825;28;20253;-75
2022/02/25 12:52:09;;;;;;;3.97;0.77;;;7.90;99.90;;;;;;5013043;28;20201;-75
2022/02/25 12:54:38;;;;;;;6.67;0.67;;;8.00;99.90;;;;;;5013033;28;20217;-75
2022/02/25 12:57:08;;;;;;;5.60;0.70;;;8.20;99.90;;;;;;5013340;28;20534;-75
2022/02/25 12:59:38;;;;;;;2.33;0.40;;;8.20;99.90;;;;;;5013096;28;20229;-75
2022/02/25 13:02:07;;;;;;;1.87;0.53;;;8.20;99.90;;;;;;5012938;28;20661;-76
2022/02/25 13:04:43;;;;;;;3.60;0.83;;;8.20;99.90;;;;;;5013308;28;20205;-75
2022/02/25 13:07:10;;;;;;;8.33;0.80;;;8.30;99.90;;;;;;5012664;28;20205;-75